Time;durP1;ratioP1;P1;durP2;ratioP2;P2;SDS_P1;SDS_P2;PMS_P1;PMS_P2;Temp;Humidity;BMP_temperature;BMP_pressure;BME280_temperature;BME280_humidity;BME280_pressure;Samples;Min_cycle;Max_cycle;Signal;HPM_P1;HPM_P2
2021/06/06 00:00:18;;;;;;;;;7.75;7.75;;;;;24.02;43.41;101714.66;4957304;28;59528;-86
2021/06/06 00:02:44;;;;;;;;;9.00;9.00;;;;;24.01;44.20;101712.03;4967596;28;45247;-86
2021/06/06 00:05:10;;;;;;;;;7.75;7.00;;;;;24.04;44.05;101715.47;4994167;28;46531;-85
2021/06/06 00:07:36;;;;;;;;;7.25;7.25;;;;;24.06;43.06;101705.63;5002155;28;45425;-84
2021/06/06 00:10:01;;;;;;;;;6.50;6.50;;;;;24.04;42.97;101703.94;4986187;28;45341;-84
2021/06/06 00:12:27;;;;;;;;;7.50;6.25;;;;;24.03;43.11;101708.41;4985785;28;45345;-84
2021/06/06 00:14:52;;;;;;;;;7.50;7.50;;;;;24.02;42.68;101706.66;4974094;28;47883;-85
2021/06/06 00:17:17;;;;;;;;;11.00;10.50;;;;;24.02;42.57;101708.47;4950275;28;44791;-84
2021/06/06 00:19:43;;;;;;;;;9.25;7.75;;;;;24.00;42.60;101704.97;4974154;28;52994;-85
2021/06/06 00:22:08;;;;;;;;;11.25;11.00;;;;;23.97;42.68;101711.25;4999985;28;50037;-84
2021/06/06 00:24:35;;;;;;;;;6.75;6.50;;;;;23.94;42.34;101714.03;4985432;28;45712;-84
2021/06/06 00:27:00;;;;;;;;;8.50;7.75;;;;;23.89;42.32;101707.94;4985805;28;45499;-86
2021/06/06 00:29:27;;;;;;;;;9.25;6.75;;;;;23.90;42.06;101709.72;4985498;28;45400;-86
2021/06/06 00:31:52;;;;;;;;;9.50;6.00;;;;;23.88;42.11;101707.06;4983606;28;45655;-87
2021/06/06 00:34:18;;;;;;;;;7.25;7.25;;;;;23.86;42.95;101708.03;4977595;28;47337;-87
2021/06/06 00:36:44;;;;;;;;;7.25;7.25;;;;;23.82;42.25;101701.94;4985544;28;45350;-87
2021/06/06 00:39:09;;;;;;;;;8.25;8.25;;;;;23.77;42.84;101705.66;4990134;28;45589;-87
2021/06/06 00:41:36;;;;;;;;;8.50;7.75;;;;;23.81;42.58;101713.53;4982077;28;49107;-86
2021/06/06 00:44:01;;;;;;;;;10.25;8.50;;;;;23.78;43.04;101700.28;4966137;28;46465;-86
2021/06/06 00:46:28;;;;;;;;;10.00;8.75;;;;;23.75;43.20;101704.84;4971475;28;45385;-87
2021/06/06 00:48:54;;;;;;;;;11.50;10.25;;;;;23.74;42.82;101698.66;4986485;28;45397;-87
2021/06/06 00:51:47;;;;;;;;;11.50;9.75;;;;;23.71;43.96;101697.84;4970858;28;45484;-87
2021/06/06 00:54:22;;;;;;;;;11.75;10.25;;;;;23.68;43.79;101689.03;4968354;28;47230;-86
2021/06/06 00:56:48;;;;;;;;;9.25;9.00;;;;;23.68;43.15;101685.50;4967158;28;45513;-87
2021/06/06 00:59:15;;;;;;;;;10.25;9.00;;;;;23.67;43.86;101689.94;4982193;28;45501;-86
2021/06/06 01:01:41;;;;;;;;;11.00;9.00;;;;;23.66;43.93;101690.88;5011513;28;45356;-87
2021/06/06 01:04:06;;;;;;;;;11.50;10.75;;;;;23.60;43.83;101675.06;5001511;28;45291;-87
2021/06/06 01:06:38;;;;;;;;;11.00;11.00;;;;;23.61;43.87;101689.25;4985044;28;45276;-86
2021/06/06 01:09:05;;;;;;;;;12.50;9.75;;;;;23.61;43.74;101687.47;4981787;28;45472;-84
2021/06/06 01:11:38;;;;;;;;;11.00;10.75;;;;;23.60;44.18;101688.38;4974407;28;45517;-84
2021/06/06 01:14:08;;;;;;;;;9.75;9.75;;;;;23.58;43.68;101689.31;5022096;28;45595;-84
2021/06/06 01:16:43;;;;;;;;;12.75;10.50;;;;;23.55;44.29;101687.63;4985189;28;45287;-84
2021/06/06 01:19:26;;;;;;;;;12.00;9.25;;;;;23.54;43.96;101685.84;4969415;28;45320;-83
2021/06/06 01:22:12;;;;;;;;;10.00;9.75;;;;;23.53;44.22;101689.44;4998454;28;45417;-83
2021/06/06 01:24:39;;;;;;;;;7.75;6.25;;;;;23.51;44.48;101685.09;4978373;28;48049;-82
2021/06/06 01:27:10;;;;;;;;;10.25;10.25;;;;;23.47;43.96;101683.44;4975301;28;45199;-82
2021/06/06 01:29:37;;;;;;;;;11.50;10.75;;;;;23.44;43.87;101687.03;4968540;28;45366;-83
2021/06/06 01:32:21;;;;;;;;;12.50;9.75;;;;;23.42;44.07;101686.22;5008961;28;45423;-83
2021/06/06 01:34:49;;;;;;;;;10.75;10.75;;;;;23.42;44.18;101680.91;5004507;28;46735;-83
2021/06/06 01:37:17;;;;;;;;;11.50;8.25;;;;;23.41;43.74;101684.47;4968832;28;45910;-85
2021/06/06 01:39:51;;;;;;;;;10.00;10.00;;;;;23.36;43.99;101679.28;5005723;28;45626;-84
2021/06/06 01:42:20;;;;;;;;;12.50;10.75;;;;;23.37;44.17;101680.19;4988500;28;45342;-85
2021/06/06 01:44:47;;;;;;;;;11.00;9.25;;;;;23.35;44.38;101685.53;4968492;28;48545;-85
2021/06/06 01:47:17;;;;;;;;;9.50;9.25;;;;;23.35;44.18;101684.66;4977214;28;46141;-85
2021/06/06 01:49:50;;;;;;;;;8.00;8.00;;;;;23.32;43.75;101682.97;5000549;28;45409;-86
2021/06/06 01:52:16;;;;;;;;;7.75;7.75;;;;;23.32;44.63;101682.09;4990688;28;45362;-85
2021/06/06 01:54:42;;;;;;;;;12.25;10.00;;;;;23.31;44.15;101673.22;4988608;28;46793;-86
2021/06/06 01:57:10;;;;;;;;;14.75;10.25;;;;;23.30;44.01;101670.63;4985499;28;45362;-86
2021/06/06 01:59:39;;;;;;;;;10.25;9.00;;;;;23.26;44.08;101676.94;4988147;28;45493;-86
2021/06/06 02:02:04;;;;;;;;;8.50;7.75;;;;;23.24;43.97;101674.31;5007778;28;45448;-86
2021/06/06 02:04:30;;;;;;;;;9.00;8.00;;;;;23.24;44.29;101668.97;4975984;28;47159;-86
2021/06/06 02:06:59;;;;;;;;;8.25;8.25;;;;;23.23;43.89;101663.72;4968150;28;45236;-87
2021/06/06 02:09:26;;;;;;;;;9.75;9.00;;;;;23.21;44.02;101653.09;4968600;28;45293;-85
2021/06/06 02:11:53;;;;;;;;;7.25;7.25;;;;;23.19;43.86;101648.72;4963192;28;46043;-86
2021/06/06 02:14:24;;;;;;;;;9.50;9.25;;;;;23.19;43.89;101662.03;5011799;28;46071;-86
2021/06/06 02:16:54;;;;;;;;;8.00;8.00;;;;;23.15;44.00;101653.28;4987140;28;45448;-86
2021/06/06 02:19:24;;;;;;;;;11.25;9.25;;;;;23.15;44.20;101657.72;5004836;28;45270;-86
2021/06/06 02:21:49;;;;;;;;;9.25;8.50;;;;;23.10;44.50;101637.41;5001396;28;45374;-84
2021/06/06 02:24:15;;;;;;;;;9.25;8.00;;;;;23.10;44.11;101657.84;4960578;28;66001;-85
2021/06/06 02:26:40;;;;;;;;;10.50;8.75;;;;;23.08;43.91;101652.56;4968367;28;47993;-85
2021/06/06 02:29:17;;;;;;;;;10.25;9.75;;;;;23.06;43.87;101650.88;4994053;28;45331;-86
2021/06/06 02:32:04;;;;;;;;;8.00;8.00;;;;;23.08;44.19;101649.91;4999649;28;45368;-86
2021/06/06 02:34:42;;;;;;;;;8.00;8.00;;;;;23.05;43.60;101650.00;5001554;28;47425;-85
2021/06/06 02:37:27;;;;;;;;;8.00;8.00;;;;;23.01;44.34;101643.00;4987186;28;45368;-85
2021/06/06 02:40:00;;;;;;;;;6.50;6.50;;;;;22.98;44.06;101637.75;4988335;28;45521;-85
2021/06/06 02:42:29;;;;;;;;;9.75;7.25;;;;;22.98;43.72;101643.09;4987683;28;45326;-86
2021/06/06 02:45:25;;;;;;;;;11.25;9.25;;;;;22.96;43.55;101633.41;4987054;28;45372;-86
2021/06/06 02:47:51;;;;;;;;;9.50;8.00;;;;;22.96;44.20;101626.28;4986695;28;44760;-86
2021/06/06 02:50:28;;;;;;;;;8.25;7.00;;;;;22.95;43.84;101632.53;4967772;28;45279;-85
2021/06/06 02:53:02;;;;;;;;;8.25;8.25;;;;;22.93;44.08;101631.69;5003308;28;45504;-85
2021/06/06 02:55:30;;;;;;;;;8.25;8.00;;;;;22.92;44.46;101634.38;5003810;28;46744;-86
2021/06/06 02:58:00;;;;;;;;;7.75;7.25;;;;;22.91;44.68;101638.84;4987953;28;45263;-87
2021/06/06 03:00:37;;;;;;;;;9.25;9.25;;;;;22.87;44.42;101623.00;4988929;28;45364;-86
2021/06/06 03:03:23;;;;;;;;;7.00;5.00;;;;;22.88;44.00;101627.41;4971925;28;45258;-85
2021/06/06 03:05:49;;;;;;;;;7.50;6.50;;;;;22.90;44.55;101629.13;4968579;28;47532;-86
2021/06/06 03:08:14;;;;;;;;;7.00;7.00;;;;;22.89;42.96;101615.84;4994356;28;45346;-85
2021/06/06 03:10:40;;;;;;;;;6.00;6.00;;;;;22.90;43.17;101622.91;4986925;28;45233;-85
2021/06/06 03:13:30;;;;;;;;;7.25;6.75;;;;;22.93;43.50;101628.16;4986463;28;45253;-86
2021/06/06 03:15:57;;;;;;;;;7.00;7.00;;;;;22.90;42.88;101621.13;4986654;28;48584;-86
2021/06/06 03:18:24;;;;;;;;;6.25;6.25;;;;;22.88;43.22;101619.44;4986212;28;45362;-85
2021/06/06 03:20:50;;;;;;;;;7.75;6.75;;;;;22.90;43.42;101615.81;4967347;28;45303;-85
2021/06/06 03:23:19;;;;;;;;;7.00;7.00;;;;;22.87;43.41;101617.69;4963455;28;45824;-85
2021/06/06 03:25:53;;;;;;;;;5.75;5.75;;;;;22.88;43.29;101620.31;4967267;28;46237;-85
2021/06/06 03:28:21;;;;;;;;;9.25;6.50;;;;;22.87;43.46;101615.03;4979859;28;46153;-85
2021/06/06 03:30:48;;;;;;;;;8.75;7.75;;;;;22.87;43.69;101618.56;4967817;28;45393;-85
2021/06/06 03:33:19;;;;;;;;;11.75;10.00;;;;;22.87;43.94;101620.34;4963354;28;45580;-83
2021/06/06 03:35:44;;;;;;;;;7.00;7.00;;;;;22.85;43.97;101623.06;4999493;28;47124;-84
2021/06/06 03:38:11;;;;;;;;;7.75;7.00;;;;;22.85;43.57;101620.41;5011999;28;45334;-85
2021/06/06 03:40:38;;;;;;;;;4.50;4.25;;;;;22.83;43.93;101624.84;4983672;28;45230;-85
2021/06/06 03:43:04;;;;;;;;;6.00;6.00;;;;;22.83;43.73;101625.72;4999712;28;45269;-84
2021/06/06 03:45:30;;;;;;;;;7.00;7.00;;;;;22.79;43.76;101616.06;4966711;28;48228;-84
2021/06/06 03:47:56;;;;;;;;;9.75;8.75;;;;;22.80;43.70;101619.59;4995595;28;64072;-84
2021/06/06 03:50:22;;;;;;;;;7.00;6.00;;;;;22.82;44.13;101617.78;4967122;28;45534;-84
2021/06/06 03:52:47;;;;;;;;;6.00;6.00;;;;;22.76;43.75;101604.63;5003407;28;45305;-84
2021/06/06 03:55:13;;;;;;;;;7.00;7.00;;;;;22.79;44.23;101609.88;4965702;28;69577;-85
2021/06/06 03:57:39;;;;;;;;;7.25;7.25;;;;;22.77;43.21;101615.25;4995895;28;45336;-85
2021/06/06 04:00:08;;;;;;;;;8.00;6.00;;;;;22.74;43.72;101606.47;4992873;28;45403;-85
2021/06/06 04:02:33;;;;;;;;;6.25;6.25;;;;;22.70;43.89;101597.69;4986028;28;45284;-85
2021/06/06 04:04:58;;;;;;;;;7.50;7.50;;;;;22.71;43.99;101598.56;4990383;28;67578;-86
2021/06/06 04:07:24;;;;;;;;;9.50;8.00;;;;;22.69;44.00;101603.06;4983981;28;60309;-86
2021/06/06 04:09:52;;;;;;;;;7.50;7.50;;;;;22.66;43.48;101603.13;4987526;28;45239;-85
2021/06/06 04:12:18;;;;;;;;;6.50;6.00;;;;;22.60;43.91;101600.66;5002468;28;45541;-85
2021/06/06 04:14:43;;;;;;;;;6.75;6.00;;;;;22.62;43.85;101602.34;5018268;28;65091;-85
2021/06/06 04:17:08;;;;;;;;;6.50;6.50;;;;;22.61;44.43;101605.94;4985704;28;45372;-86
2021/06/06 04:19:34;;;;;;;;;6.75;6.75;;;;;22.57;43.95;101602.47;4975570;28;45671;-85
2021/06/06 04:21:59;;;;;;;;;8.25;7.50;;;;;22.55;44.66;101608.75;4966174;28;46281;-86
2021/06/06 04:24:24;;;;;;;;;8.25;8.25;;;;;22.54;44.41;101607.88;4999685;28;46292;-85
2021/06/06 04:26:50;;;;;;;;;6.75;6.75;;;;;22.53;44.63;101608.78;4982183;28;55570;-86
2021/06/06 04:29:16;;;;;;;;;8.75;8.75;;;;;22.54;44.38;101609.66;4957114;28;45358;-86
2021/06/06 04:31:41;;;;;;;;;7.25;7.00;;;;;22.53;43.79;101614.13;4995950;28;45441;-86
2021/06/06 04:34:07;;;;;;;;;7.75;6.50;;;;;22.56;43.81;101611.38;4956445;28;46954;-86
2021/06/06 04:36:32;;;;;;;;;7.00;7.00;;;;;22.56;43.95;101611.38;5013432;28;45218;-86
2021/06/06 04:38:57;;;;;;;;;5.75;4.50;;;;;22.56;43.82;101610.50;4967886;28;45783;-86
2021/06/06 04:41:23;;;;;;;;;6.25;6.25;;;;;22.54;43.75;101615.84;4982795;28;56720;-86
2021/06/06 04:43:48;;;;;;;;;7.50;6.00;;;;;22.53;43.97;101616.78;4966415;28;45436;-85
2021/06/06 04:46:16;;;;;;;;;7.00;6.75;;;;;22.55;43.65;101628.25;4966765;28;45252;-86
2021/06/06 04:48:43;;;;;;;;;9.00;8.00;;;;;22.54;44.12;101621.19;4970622;28;45354;-86
2021/06/06 04:51:18;;;;;;;;;7.00;6.00;;;;;22.55;44.17;101622.06;5004314;28;45594;-86
2021/06/06 04:53:43;;;;;;;;;6.75;6.00;;;;;22.54;44.22;101625.63;4994186;28;47202;-84
2021/06/06 04:56:10;;;;;;;;;6.00;6.00;;;;;22.53;44.02;101623.88;4970094;28;60809;-85
2021/06/06 04:58:36;;;;;;;;;7.75;6.25;;;;;22.49;44.00;101622.22;4969218;28;45408;-84
2021/06/06 05:01:01;;;;;;;;;6.50;6.00;;;;;22.48;44.48;101625.78;4982261;28;45312;-84
2021/06/06 05:03:27;;;;;;;;;8.75;8.00;;;;;22.50;44.49;101622.19;4979640;28;59705;-85
2021/06/06 05:05:52;;;;;;;;;9.75;7.75;;;;;22.50;44.05;101618.63;4986989;28;54119;-86
2021/06/06 05:08:20;;;;;;;;;8.00;6.00;;;;;22.50;44.11;101616.88;4985616;28;45250;-86
2021/06/06 05:10:46;;;;;;;;;5.75;5.75;;;;;22.45;43.73;101616.09;4969144;28;45414;-85
2021/06/06 05:13:14;;;;;;;;;9.75;6.25;;;;;22.47;44.28;101619.59;4980256;28;47058;-85
2021/06/06 05:15:40;;;;;;;;;6.00;6.00;;;;;22.45;43.81;101621.41;4986012;28;45398;-85
2021/06/06 05:18:06;;;;;;;;;7.00;7.00;;;;;22.47;43.84;101619.59;4961421;28;45310;-85
2021/06/06 05:20:34;;;;;;;;;8.50;8.50;;;;;22.46;43.68;101617.84;4974212;28;45545;-86
2021/06/06 05:23:00;;;;;;;;;8.25;7.25;;;;;22.44;44.13;101606.38;5004598;28;47398;-87
2021/06/06 05:25:28;;;;;;;;;6.00;6.00;;;;;22.45;44.29;101616.09;4985140;28;47998;-88
2021/06/06 05:27:54;;;;;;;;;6.50;6.50;;;;;22.44;44.09;101614.34;4997428;28;51922;-84
2021/06/06 05:30:22;;;;;;;;;7.25;7.25;;;;;22.52;44.84;101620.34;5008543;28;45447;-87
2021/06/06 05:32:51;;;;;;;;;6.00;5.25;;;;;22.63;45.35;101619.19;5001820;28;46203;-87
2021/06/06 05:35:20;;;;;;;;;8.00;8.00;;;;;22.59;42.35;101615.75;5002401;28;45479;-79
2021/06/06 05:37:45;;;;;;;;;10.75;7.00;;;;;22.33;42.22;101615.53;4998014;28;45412;-78
2021/06/06 05:40:11;;;;;;;;;8.25;7.00;;;;;21.98;41.65;101620.81;5009762;28;45324;-78
2021/06/06 05:42:36;;;;;;;;;6.50;6.00;;;;;21.79;42.18;101623.91;5001231;28;46034;-79
2021/06/06 05:45:03;;;;;;;;;7.75;7.00;;;;;21.62;42.27;101619.84;5003693;28;64002;-78
2021/06/06 05:47:28;;;;;;;;;7.00;7.00;;;;;21.53;42.09;101617.41;4971297;28;45338;-76
2021/06/06 05:49:57;;;;;;;;;6.75;6.50;;;;;21.36;42.42;101625.72;4968892;28;45834;-79
2021/06/06 05:52:25;;;;;;;;;8.50;5.25;;;;;21.27;42.55;101623.28;4983130;28;46103;-79
2021/06/06 05:54:50;;;;;;;;;8.00;8.00;;;;;21.29;42.79;101633.88;4984847;28;45433;-80
2021/06/06 05:57:15;;;;;;;;;8.50;7.00;;;;;21.37;42.64;101627.50;4965008;28;45430;-80
2021/06/06 05:59:41;;;;;;;;;6.75;5.75;;;;;21.49;42.34;101626.34;4974144;28;45492;-80
2021/06/06 06:02:06;;;;;;;;;6.75;6.25;;;;;21.42;42.47;101628.25;4980121;28;46134;-81
2021/06/06 06:04:32;;;;;;;;;7.50;5.00;;;;;21.26;42.01;101624.16;4971255;28;63930;-87
2021/06/06 06:06:57;;;;;;;;;5.50;5.50;;;;;21.08;42.94;101625.41;4984937;28;45355;-79
2021/06/06 06:09:23;;;;;;;;;7.75;6.00;;;;;21.29;43.16;101634.75;4997669;28;45218;-80
2021/06/06 06:11:51;;;;;;;;;5.25;4.75;;;;;21.56;42.31;101640.38;5015742;28;46357;-93
2021/06/06 06:14:17;;;;;;;;;7.75;6.00;;;;;21.78;41.97;101632.78;5002593;28;45505;-82
2021/06/06 06:16:45;;;;;;;;;3.50;3.50;;;;;22.00;41.89;101634.94;5005934;28;45347;-85
2021/06/06 06:19:11;;;;;;;;;4.25;3.75;;;;;22.21;41.06;101638.00;4995469;28;45401;-88
2021/06/06 06:21:36;;;;;;;;;7.25;6.00;;;;;22.38;40.85;101618.97;5004800;28;46432;-84
2021/06/06 06:24:02;;;;;;;;;5.75;5.25;;;;;22.52;40.49;101624.81;4967980;28;45231;-83
2021/06/06 06:26:28;;;;;;;;;4.75;4.75;;;;;22.66;40.00;101622.63;4968877;28;45500;-77
2021/06/06 06:28:53;;;;;;;;;5.25;4.75;;;;;22.79;40.29;101628.50;4984705;28;45418;-79
2021/06/06 06:31:19;;;;;;;;;7.00;5.50;;;;;22.93;39.73;101636.13;4967685;28;45442;-75
2021/06/06 06:33:44;;;;;;;;;5.00;5.00;;;;;23.04;39.37;101640.25;4984158;28;45476;-74
2021/06/06 06:36:10;;;;;;;;;4.75;4.25;;;;;23.13;39.21;101641.78;4984114;28;45300;-73
2021/06/06 06:38:36;;;;;;;;;5.00;4.50;;;;;23.25;39.64;101637.88;4971487;28;45446;-72
2021/06/06 06:41:02;;;;;;;;;5.00;4.25;;;;;23.35;39.09;101642.03;5000076;28;45994;-74
2021/06/06 06:43:27;;;;;;;;;7.00;5.75;;;;;23.41;39.08;101629.41;4967374;28;45362;-72
2021/06/06 06:45:54;;;;;;;;;5.25;5.00;;;;;23.49;39.49;101634.50;4983955;28;45304;-68
2021/06/06 06:48:21;;;;;;;;;9.00;7.00;;;;;23.54;38.81;101634.34;4984222;28;45602;-72
2021/06/06 06:50:47;;;;;;;;;6.50;5.50;;;;;23.59;38.28;101641.34;4963617;28;48113;-74
2021/06/06 06:53:12;;;;;;;;;7.75;6.25;;;;;23.59;39.23;101630.69;4983747;28;45334;-71
2021/06/06 06:55:38;;;;;;;;;4.00;4.00;;;;;23.66;38.35;101634.03;4967413;28;45192;-71
2021/06/06 06:58:04;;;;;;;;;4.75;4.75;;;;;23.67;38.62;101631.31;4970938;28;45536;-72
2021/06/06 07:00:43;;;;;;;;;3.00;3.00;;;;;23.73;38.71;101640.91;4966952;28;47477;-72
2021/06/06 07:03:09;;;;;;;;;4.00;4.00;;;;;23.71;38.69;101623.22;4976642;28;45366;-74
2021/06/06 07:05:34;;;;;;;;;3.50;3.25;;;;;23.77;37.90;101633.69;4983591;28;45446;-70
2021/06/06 07:08:00;;;;;;;;;4.25;4.00;;;;;23.79;38.31;101646.03;4967032;28;45397;-72
2021/06/06 07:10:28;;;;;;;;;4.25;4.25;;;;;23.83;38.62;101642.38;4982482;28;46793;-70
2021/06/06 07:12:53;;;;;;;;;4.25;3.25;;;;;23.85;38.01;101639.66;4959975;28;45240;-70
2021/06/06 07:15:19;;;;;;;;;4.00;3.00;;;;;23.88;39.19;101644.88;4984003;28;45184;-69
2021/06/06 07:17:44;;;;;;;;;6.25;4.00;;;;;23.85;38.47;101629.84;5001026;28;45496;-75
2021/06/06 07:20:12;;;;;;;;;9.00;6.75;;;;;23.93;38.03;101634.94;4983268;28;46608;-72
2021/06/06 07:22:37;;;;;;;;;3.50;3.50;;;;;23.96;38.08;101638.38;4976329;28;45782;-76
2021/06/06 07:25:05;;;;;;;;;4.00;3.00;;;;;24.05;38.24;101639.88;4999721;28;52803;-72
2021/06/06 07:27:32;;;;;;;;;3.00;3.00;;;;;24.13;38.32;101643.16;4976638;28;45369;-69
2021/06/06 07:29:58;;;;;;;;;2.25;2.25;;;;;24.20;38.56;101644.72;4985633;28;47156;-72
2021/06/06 07:32:23;;;;;;;;;3.00;3.00;;;;;24.24;38.68;101646.38;5010948;28;45529;-77
2021/06/06 07:34:49;;;;;;;;;4.00;3.00;;;;;24.26;37.16;101646.31;5002764;28;45219;-75
2021/06/06 07:37:15;;;;;;;;;4.00;4.00;;;;;24.27;37.22;101649.88;4982901;28;45630;-71
2021/06/06 07:39:40;;;;;;;;;4.75;3.00;;;;;24.22;36.93;101634.88;5001498;28;46813;-71
2021/06/06 07:42:10;;;;;;;;;4.75;4.00;;;;;24.22;36.53;101634.88;4983055;28;45840;-70
2021/06/06 07:44:36;;;;;;;;;3.25;3.00;;;;;24.27;37.80;101634.72;4985906;28;45384;-72
2021/06/06 07:47:06;;;;;;;;;2.75;2.75;;;;;24.31;36.93;101646.16;4986126;28;45495;-72
2021/06/06 07:49:36;;;;;;;;;5.00;4.00;;;;;24.34;37.48;101638.97;4986304;28;45270;-71
2021/06/06 07:52:01;;;;;;;;;3.00;3.00;;;;;24.39;36.96;101644.13;4988353;28;45485;-70
2021/06/06 07:54:27;;;;;;;;;4.00;2.75;;;;;24.42;36.10;101647.59;4999102;28;45315;-72
2021/06/06 07:56:57;;;;;;;;;5.00;4.00;;;;;24.45;36.27;101646.59;4973874;28;45455;-72
2021/06/06 07:59:23;;;;;;;;;7.00;4.00;;;;;24.47;36.23;101642.09;4997638;28;45437;-71
2021/06/06 08:01:48;;;;;;;;;4.75;3.25;;;;;24.51;36.79;101649.94;5010772;28;45387;-71
2021/06/06 08:04:14;;;;;;;;;6.00;4.00;;;;;24.55;37.42;101645.34;4966122;28;46659;-72
2021/06/06 08:06:39;;;;;;;;;3.25;2.50;;;;;24.60;36.47;101648.75;4985875;28;45610;-71
2021/06/06 08:09:04;;;;;;;;;4.00;4.00;;;;;24.64;36.86;101646.84;4985518;28;51711;-71
2021/06/06 08:11:30;;;;;;;;;4.00;4.00;;;;;24.66;36.40;101643.19;4985533;28;52048;-73
2021/06/06 08:13:55;;;;;;;;;4.00;3.00;;;;;24.69;36.43;101640.44;4982445;28;45353;-71
2021/06/06 08:16:21;;;;;;;;;5.75;5.25;;;;;24.73;36.25;101644.72;4966253;28;45510;-77
2021/06/06 08:18:46;;;;;;;;;4.50;3.75;;;;;24.76;36.07;101638.41;4982597;28;45484;-75
2021/06/06 08:21:32;;;;;;;;;4.50;4.00;;;;;24.77;35.86;101635.69;4967641;28;46046;-75
2021/06/06 08:23:57;;;;;;;;;4.50;4.25;;;;;24.80;36.07;101638.25;4962270;28;45284;-76
2021/06/06 08:26:26;;;;;;;;;4.00;4.00;;;;;24.80;36.19;101635.56;4985726;28;45187;-75
2021/06/06 08:28:52;;;;;;;;;4.25;4.00;;;;;24.84;36.04;101639.00;4960838;28;46839;-76
2021/06/06 08:31:24;;;;;;;;;3.50;3.50;;;;;24.88;35.77;101632.63;4987400;28;45353;-76
2021/06/06 08:33:49;;;;;;;;;6.75;5.75;;;;;24.88;36.24;101632.63;4970517;28;45304;-76
2021/06/06 08:36:27;;;;;;;;;4.50;4.50;;;;;24.91;35.57;101631.63;4969280;28;45707;-75
2021/06/06 08:38:53;;;;;;;;;5.00;3.50;;;;;24.91;35.40;101624.50;4982114;28;45425;-75
2021/06/06 08:41:40;;;;;;;;;5.00;4.00;;;;;24.93;35.61;101627.97;4989206;28;45456;-76
2021/06/06 08:44:15;;;;;;;;;4.75;3.50;;;;;24.93;35.47;101619.09;4999468;28;45444;-77
2021/06/06 08:46:58;;;;;;;;;4.50;4.50;;;;;24.98;35.02;101628.69;5010545;28;46360;-76
2021/06/06 08:49:24;;;;;;;;;5.00;3.00;;;;;24.90;35.15;101613.88;4991628;28;47329;-76
2021/06/06 08:52:23;;;;;;;;;4.00;4.00;;;;;24.95;34.76;101612.78;4981064;28;45364;-75
2021/06/06 08:54:56;;;;;;;;;4.50;3.00;;;;;25.02;34.94;101625.03;4930503;28;45307;-76
2021/06/06 08:57:43;;;;;;;;;3.75;3.00;;;;;25.03;34.45;101620.56;4924640;28;45577;-77
2021/06/06 09:00:27;;;;;;;;;4.00;3.00;;;;;25.01;34.97;101622.34;4961694;28;45957;-76
2021/06/06 09:03:11;;;;;;;;;4.00;4.00;;;;;25.06;34.51;101628.44;4930169;28;45467;-75
2021/06/06 09:05:41;;;;;;;;;3.25;3.00;;;;;25.06;34.86;101625.78;4969872;28;45404;-74
2021/06/06 09:08:11;;;;;;;;;3.25;3.25;;;;;25.07;34.39;101616.81;4975629;28;45393;-76
2021/06/06 09:10:39;;;;;;;;;4.50;3.00;;;;;25.04;34.34;101614.28;4985569;28;46442;-76
2021/06/06 09:13:06;;;;;;;;;3.75;3.75;;;;;25.09;34.64;101612.28;4988413;28;45271;-75
2021/06/06 09:15:32;;;;;;;;;3.00;2.50;;;;;25.11;34.44;101615.81;4988538;28;45290;-76
2021/06/06 09:17:59;;;;;;;;;4.75;3.25;;;;;25.12;34.89;101614.00;5012402;28;45321;-76
2021/06/06 09:20:36;;;;;;;;;3.25;3.25;;;;;25.16;34.89;101620.97;5002102;28;45509;-76
2021/06/06 09:23:06;;;;;;;;;3.00;3.00;;;;;25.18;34.51;101609.28;5021107;28;45317;-75
2021/06/06 09:25:36;;;;;;;;;4.25;4.25;;;;;25.20;34.46;101612.78;4988563;28;45294;-76
2021/06/06 09:28:29;;;;;;;;;3.75;3.75;;;;;25.22;34.85;101616.25;4975177;28;45712;-76
2021/06/06 09:31:26;;;;;;;;;3.75;3.75;;;;;25.24;34.38;101616.19;5011740;28;45360;-76
2021/06/06 09:33:52;;;;;;;;;4.50;4.50;;;;;25.28;35.40;101617.81;4973602;28;45284;-76
2021/06/06 09:36:31;;;;;;;;;4.25;4.25;;;;;25.27;34.34;101614.25;5016980;28;45457;-75
2021/06/06 09:39:02;;;;;;;;;5.25;5.00;;;;;25.31;34.32;101617.72;4972821;28;45251;-77
2021/06/06 09:41:33;;;;;;;;;4.75;4.50;;;;;25.28;34.49;101605.34;5017791;28;46260;-77
2021/06/06 09:44:19;;;;;;;;;3.75;3.75;;;;;25.26;34.44;101607.19;4984297;28;45568;-76
2021/06/06 09:47:04;;;;;;;;;;;;;;;;;;;;;
2021/06/06 09:49:44;;;;;;;;;5.50;5.50;;;;;25.27;34.33;101614.25;5000943;28;73241;-76
2021/06/06 09:52:40;;;;;;;;;6.50;5.75;;;;;25.13;34.99;101592.56;4963270;28;47970;-76
2021/06/06 09:55:27;;;;;;;;;5.75;4.50;;;;;25.26;34.93;101609.84;4982843;28;45248;-76
2021/06/06 09:57:54;;;;;;;;;5.25;4.75;;;;;25.32;35.57;101628.34;4968013;28;45346;-77
2021/06/06 10:00:45;;;;;;;;;4.25;4.25;;;;;25.24;35.06;101614.41;4969821;28;45392;-79
2021/06/06 10:03:42;;;;;;;;;4.00;3.00;;;;;25.33;35.36;101621.19;5007376;28;45617;-77
2021/06/06 10:06:24;;;;;;;;;6.00;5.75;;;;;25.18;35.75;101606.59;4989653;28;45428;-74
2021/06/06 10:09:20;;;;;;;;;5.00;4.00;;;;;25.33;35.65;101627.41;5001888;28;45586;-74
2021/06/06 10:12:27;;;;;;;;;7.00;4.75;;;;;25.14;36.12;101596.97;4992948;28;45597;-77
2021/06/06 10:15:05;;;;;;;;;7.00;6.00;;;;;25.24;36.61;101598.38;4936159;28;45477;-73
2021/06/06 10:17:43;;;;;;;;;7.00;4.50;;;;;25.35;36.55;101613.97;4926246;28;45514;-75
2021/06/06 10:20:43;;;;;;;;;5.25;5.00;;;;;25.45;36.60;101623.38;4985989;28;45258;-72
2021/06/06 10:23:16;;;;;;;;;5.50;5.00;;;;;25.46;36.59;101617.13;4979082;28;45830;-72
2021/06/06 10:25:41;;;;;;;;;5.25;4.25;;;;;25.51;37.51;101614.25;5012505;28;46270;-80
2021/06/06 10:28:22;;;;;;;;;4.00;4.00;;;;;25.51;35.99;101606.25;4994855;28;45311;-77
2021/06/06 10:30:56;;;;;;;;;4.00;4.00;;;;;25.51;36.59;101603.56;4969504;28;46451;-76
2021/06/06 10:33:25;;;;;;;;;6.00;5.00;;;;;25.58;36.42;101618.44;4965458;28;46101;-81
2021/06/06 10:35:51;;;;;;;;;4.50;4.50;;;;;25.58;36.71;101613.97;4975653;28;47431;-79
2021/06/06 10:38:17;;;;;;;;;7.25;5.75;;;;;25.62;35.69;101615.56;4972131;28;45266;-78
2021/06/06 10:40:50;;;;;;;;;7.00;5.50;;;;;25.62;36.20;101614.69;5003737;28;45286;-76
2021/06/06 10:43:58;;;;;;;;;4.75;4.75;;;;;25.63;36.24;101612.00;4985388;28;45255;-79
2021/06/06 10:46:45;;;;;;;;;5.50;5.50;;;;;25.61;36.53;101607.63;5014492;28;45395;-75
2021/06/06 10:49:28;;;;;;;;;7.50;5.00;;;;;25.67;36.27;101615.41;4998152;28;45258;-76
2021/06/06 10:51:57;;;;;;;;;4.50;4.50;;;;;25.69;36.47;101618.88;5001858;28;45434;-78
2021/06/06 10:54:39;;;;;;;;;6.25;4.00;;;;;25.69;36.05;101618.88;4983434;28;45307;-77
2021/06/06 10:57:07;;;;;;;;;5.00;5.00;;;;;25.72;35.42;101612.59;4983941;28;46637;-75
2021/06/06 10:59:44;;;;;;;;;7.25;5.25;;;;;25.70;35.48;101606.38;4986344;28;45368;-74
2021/06/06 11:02:36;;;;;;;;;11.25;5.00;;;;;25.62;35.33;101598.66;5007753;28;45250;-75
2021/06/06 11:05:44;;;;;;;;;7.50;6.00;;;;;25.66;35.45;101608.31;4972409;28;45498;-76
2021/06/06 11:08:30;;;;;;;;;7.00;6.00;;;;;25.53;35.58;101583.00;4951745;28;46533;-76
2021/06/06 11:11:13;;;;;;;;;7.00;5.25;;;;;25.51;35.62;101579.50;4988232;28;45266;-76
2021/06/06 11:13:47;;;;;;;;;7.00;7.00;;;;;25.61;35.57;101591.56;4984680;28;45275;-74
2021/06/06 11:17:10;;;;;;;;;6.25;6.25;;;;;25.48;35.23;101559.13;4968174;28;45237;-75
2021/06/06 11:19:35;;;;;;;;;9.00;6.00;;;;;25.51;36.18;101564.34;4947248;28;45557;-74
2021/06/06 11:22:07;;;;;;;;;6.00;5.00;;;;;25.70;35.64;101591.22;4977629;28;45277;-76
2021/06/06 11:24:41;;;;;;;;;7.00;6.00;;;;;25.70;35.91;101591.22;4983181;28;45600;-79
2021/06/06 11:27:12;;;;;;;;;4.50;4.50;;;;;25.69;36.29;101589.47;5002182;28;45458;-81
2021/06/06 11:29:51;;;;;;;;;9.00;8.00;;;;;25.68;35.63;101586.88;4999448;28;47124;-74
2021/06/06 11:32:45;;;;;;;;;6.00;6.00;;;;;25.63;35.87;101590.59;4986833;28;45283;-75
2021/06/06 11:35:40;;;;;;;;;7.75;6.00;;;;;25.63;36.31;101589.75;5000937;28;45298;-75
2021/06/06 11:38:29;;;;;;;;;6.00;5.00;;;;;25.63;36.28;101581.72;5000400;28;45525;-75
2021/06/06 11:41:27;;;;;;;;;9.50;7.75;;;;;25.62;36.64;101571.94;5000370;28;45381;-76